createdAt,value
2022-08-29T00:00:18.212Z,1.00
2022-08-29T00:02:49.655Z,1.10
2022-08-29T00:05:18.925Z,1.10
2022-08-29T00:07:47.365Z,1.13
2022-08-29T00:10:16.939Z,1.00
2022-08-29T00:12:45.965Z,1.30
2022-08-29T00:15:15.640Z,1.23
2022-08-29T00:17:44.851Z,1.10
2022-08-29T00:20:17.111Z,1.10
2022-08-29T00:22:46.130Z,1.00
2022-08-29T00:25:15.732Z,0.70
2022-08-29T00:27:44.571Z,0.93
2022-08-29T00:30:19.477Z,1.00
2022-08-29T00:32:47.823Z,1.00
2022-08-29T00:35:20.299Z,1.10
2022-08-29T00:37:49.967Z,1.03
2022-08-29T00:40:20.898Z,1.10
2022-08-29T00:42:49.823Z,0.90
2022-08-29T00:45:19.411Z,0.80
2022-08-29T00:47:51.568Z,1.00
2022-08-29T00:50:29.170Z,0.80
2022-08-29T00:52:59.154Z,1.20
2022-08-29T00:55:31.461Z,1.30
2022-08-29T00:58:03.510Z,1.10
2022-08-29T01:00:32.565Z,1.43
2022-08-29T01:03:02.868Z,0.90
2022-08-29T01:05:33.735Z,0.77
2022-08-29T01:08:02.402Z,1.00
2022-08-29T01:10:48.079Z,0.90
2022-08-29T01:13:16.420Z,1.07
2022-08-29T01:15:46.576Z,0.80
2022-08-29T01:18:17.291Z,0.97
2022-08-29T01:20:56.346Z,0.80
2022-08-29T01:23:33.822Z,1.00
2022-08-29T01:26:05.005Z,0.90
2022-08-29T01:28:37.588Z,0.90
2022-08-29T01:31:09.513Z,1.00
2022-08-29T01:33:44.030Z,0.70
2022-08-29T01:36:16.845Z,2.00
2022-08-29T01:38:45.588Z,0.90
2022-08-29T01:41:18.252Z,0.83
2022-08-29T01:43:49.348Z,0.80
2022-08-29T01:46:20.041Z,0.90
2022-08-29T01:48:48.878Z,0.50
2022-08-29T01:51:18.036Z,1.30
2022-08-29T01:53:46.897Z,1.00
2022-08-29T01:56:19.020Z,1.00
2022-08-29T01:58:48.798Z,0.93
2022-08-29T02:01:20.563Z,0.90
2022-08-29T02:03:50.896Z,0.80
2022-08-29T02:06:19.481Z,0.70
2022-08-29T02:08:48.424Z,1.00
2022-08-29T02:11:19.728Z,1.00
2022-08-29T02:13:51.596Z,0.70
2022-08-29T02:16:20.104Z,0.73
2022-08-29T02:18:48.450Z,0.80
2022-08-29T02:21:20.453Z,0.77
2022-08-29T02:23:50.061Z,0.87
2022-08-29T02:26:21.158Z,0.80
2022-08-29T02:28:51.767Z,0.97
2022-08-29T02:31:23.231Z,0.80
2022-08-29T02:33:53.174Z,0.97
2022-08-29T02:36:22.822Z,0.90
2022-08-29T02:38:53.854Z,0.93
2022-08-29T02:41:23.454Z,0.80
2022-08-29T02:43:51.631Z,0.73
2022-08-29T02:46:21.472Z,0.70
2022-08-29T02:49:00.537Z,1.10
2022-08-29T02:51:32.194Z,0.87
2022-08-29T02:54:01.939Z,0.90
2022-08-29T02:56:31.517Z,1.10
2022-08-29T02:58:59.926Z,1.00
2022-08-29T03:01:31.359Z,1.13
2022-08-29T03:03:59.722Z,1.10
2022-08-29T03:06:28.356Z,1.10
2022-08-29T03:08:57.198Z,0.97
2022-08-29T03:11:27.133Z,1.20
2022-08-29T03:13:57.826Z,0.80
2022-08-29T03:16:26.575Z,1.00
2022-08-29T03:18:55.513Z,1.37
2022-08-29T03:21:26.286Z,0.97
2022-08-29T03:23:54.789Z,1.37
2022-08-29T03:26:23.698Z,1.13
2022-08-29T03:28:52.357Z,1.03
2022-08-29T03:31:22.260Z,1.33
2022-08-29T03:33:50.852Z,0.97
2022-08-29T03:36:19.348Z,1.13
2022-08-29T03:38:47.921Z,1.17
2022-08-29T03:41:23.387Z,0.97
2022-08-29T03:43:51.822Z,1.30
2022-08-29T03:46:22.056Z,1.20
2022-08-29T03:48:50.390Z,1.30
2022-08-29T03:51:19.593Z,1.00
2022-08-29T03:53:48.272Z,1.20
2022-08-29T03:56:18.138Z,1.00
2022-08-29T03:58:52.679Z,1.20
2022-08-29T04:01:24.922Z,1.30
2022-08-29T04:03:53.772Z,1.13
2022-08-29T04:06:23.413Z,1.50
2022-08-29T04:08:53.601Z,1.03
2022-08-29T04:11:24.009Z,1.63
2022-08-29T04:13:53.902Z,1.20
2022-08-29T04:16:30.559Z,1.20
2022-08-29T04:19:00.674Z,1.27
2022-08-29T04:21:29.061Z,1.20
2022-08-29T04:23:57.843Z,1.27
2022-08-29T04:26:36.534Z,1.97
2022-08-29T04:29:06.837Z,1.40
2022-08-29T04:31:37.128Z,1.47
2022-08-29T04:34:07.466Z,1.40
2022-08-29T04:36:36.198Z,1.03
2022-08-29T04:39:05.689Z,1.37
2022-08-29T04:41:34.597Z,1.60
2022-08-29T04:44:03.458Z,1.20
2022-08-29T04:46:32.638Z,1.87
2022-08-29T04:49:04.522Z,1.40
2022-08-29T04:51:34.552Z,1.70
2022-08-29T04:54:04.157Z,1.40
2022-08-29T04:56:32.523Z,1.50
2022-08-29T04:59:03.237Z,1.40
2022-08-29T05:01:31.998Z,1.40
2022-08-29T05:04:01.655Z,1.30
2022-08-29T05:06:30.029Z,1.33
2022-08-29T05:08:59.686Z,1.03
2022-08-29T05:11:29.720Z,1.40
2022-08-29T05:13:58.326Z,1.07
2022-08-29T05:16:27.558Z,1.33
2022-08-29T05:18:56.377Z,1.23
2022-08-29T05:21:27.782Z,1.23
2022-08-29T05:23:57.593Z,1.37
2022-08-29T05:26:30.212Z,1.23
2022-08-29T05:28:58.797Z,1.33
2022-08-29T05:31:27.551Z,1.47
2022-08-29T05:33:55.781Z,1.17
2022-08-29T05:36:25.369Z,1.40
2022-08-29T05:38:54.646Z,1.60
2022-08-29T05:41:23.070Z,1.37
2022-08-29T05:43:51.310Z,1.23
2022-08-29T05:46:20.174Z,1.17
2022-08-29T05:48:49.247Z,1.60
2022-08-29T05:51:18.946Z,3.67
2022-08-29T05:53:48.874Z,1.40
2022-08-29T05:56:25.465Z,1.80
2022-08-29T05:58:54.298Z,1.53
2022-08-29T06:01:25.243Z,1.37
2022-08-29T06:03:54.875Z,1.30
2022-08-29T06:06:26.115Z,1.07
2022-08-29T06:08:56.990Z,1.03
2022-08-29T06:11:27.670Z,1.03
2022-08-29T06:13:56.014Z,1.10
2022-08-29T06:16:27.216Z,1.73
2022-08-29T06:18:55.954Z,1.40
2022-08-29T06:21:24.144Z,1.43
2022-08-29T06:23:52.850Z,1.50
2022-08-29T06:26:22.534Z,1.53
2022-08-29T06:28:51.066Z,1.30
2022-08-29T06:31:21.804Z,1.07
2022-08-29T06:33:52.889Z,1.13
2022-08-29T06:36:21.379Z,1.33
2022-08-29T06:38:49.898Z,1.20
2022-08-29T06:41:18.986Z,2.13
2022-08-29T06:43:48.860Z,1.33
2022-08-29T06:46:23.389Z,1.20
2022-08-29T06:48:52.609Z,1.00
2022-08-29T06:51:21.022Z,1.33
2022-08-29T06:53:49.490Z,1.53
2022-08-29T06:56:19.081Z,1.50
2022-08-29T06:58:49.001Z,1.40
2022-08-29T07:01:19.695Z,2.03
2022-08-29T07:03:48.458Z,1.27
2022-08-29T07:06:18.338Z,1.57
2022-08-29T07:08:55.838Z,1.60
2022-08-29T07:11:25.600Z,1.40
2022-08-29T07:13:58.558Z,2.20
2022-08-29T07:16:27.540Z,1.73
2022-08-29T07:18:56.546Z,1.63
2022-08-29T07:21:26.316Z,1.33
2022-08-29T07:23:56.342Z,1.30
2022-08-29T07:26:26.871Z,1.63
2022-08-29T07:28:59.445Z,1.40
2022-08-29T07:31:31.114Z,1.47
2022-08-29T07:34:02.932Z,1.90
2022-08-29T07:36:33.992Z,1.30
2022-08-29T07:39:05.135Z,1.50
2022-08-29T07:41:36.457Z,1.50
2022-08-29T07:44:06.522Z,1.63
2022-08-29T07:46:34.817Z,1.67
2022-08-29T07:49:03.691Z,1.33
2022-08-29T07:51:31.953Z,1.37
2022-08-29T07:54:00.200Z,1.10
2022-08-29T07:56:37.248Z,1.20
2022-08-29T07:59:08.379Z,1.53
2022-08-29T08:01:37.255Z,1.20
2022-08-29T08:04:06.260Z,1.30
2022-08-29T08:06:37.123Z,1.30
2022-08-29T08:09:06.961Z,1.23
2022-08-29T08:11:36.155Z,1.10
2022-08-29T08:14:05.809Z,1.30
2022-08-29T08:16:35.731Z,1.20
2022-08-29T08:19:04.793Z,0.97
2022-08-29T08:21:33.073Z,1.00
2022-08-29T08:24:01.746Z,1.30
2022-08-29T08:26:30.030Z,1.10
2022-08-29T08:28:58.348Z,1.00
2022-08-29T08:31:27.068Z,1.17
2022-08-29T08:33:58.032Z,1.07
2022-08-29T08:36:29.641Z,1.00
2022-08-29T08:38:59.705Z,1.07
2022-08-29T08:41:42.156Z,0.77
2022-08-29T08:44:29.585Z,1.10
2022-08-29T08:47:06.939Z,1.20
2022-08-29T08:49:44.893Z,0.90
2022-08-29T08:52:17.752Z,1.40
2022-08-29T08:54:53.432Z,1.10
2022-08-29T08:57:23.013Z,1.40
2022-08-29T08:59:56.759Z,1.07
2022-08-29T09:02:40.043Z,1.13
2022-08-29T09:05:22.957Z,1.07
2022-08-29T09:08:01.828Z,1.00
2022-08-29T09:10:39.417Z,0.87
2022-08-29T09:13:19.142Z,0.90
2022-08-29T09:15:51.745Z,0.90
2022-08-29T09:18:30.102Z,1.00
2022-08-29T09:21:06.416Z,1.10
2022-08-29T09:23:41.139Z,1.23
2022-08-29T09:26:13.212Z,1.20
2022-08-29T09:28:41.945Z,1.10
2022-08-29T09:31:20.810Z,0.70
2022-08-29T09:33:52.323Z,1.43
2022-08-29T09:36:47.784Z,0.90
2022-08-29T09:39:24.179Z,1.00
2022-08-29T09:41:54.612Z,1.33
2022-08-29T09:44:27.376Z,0.90
2022-08-29T09:47:11.834Z,1.00
2022-08-29T09:49:41.887Z,0.90
2022-08-29T09:52:14.802Z,0.83
2022-08-29T09:54:45.261Z,0.70
2022-08-29T09:57:23.443Z,0.77
2022-08-29T10:00:09.147Z,1.13
2022-08-29T10:02:46.161Z,0.87
2022-08-29T10:05:30.033Z,1.07
2022-08-29T10:07:59.748Z,1.30
2022-08-29T10:10:33.110Z,0.67
2022-08-29T10:13:07.239Z,0.97
2022-08-29T10:15:50.443Z,0.97
2022-08-29T10:18:28.818Z,0.80
2022-08-29T10:21:13.242Z,0.90
2022-08-29T10:24:01.903Z,0.80
2022-08-29T10:26:38.378Z,1.43
2022-08-29T10:29:14.822Z,1.07
2022-08-29T10:31:47.513Z,1.00
2022-08-29T10:34:30.529Z,1.00
2022-08-29T10:37:06.568Z,0.93
2022-08-29T10:39:44.163Z,1.10
2022-08-29T10:42:19.358Z,0.67
2022-08-29T10:45:00.035Z,0.40
2022-08-29T10:47:33.908Z,0.60
2022-08-29T10:50:34.092Z,0.57
2022-08-29T10:53:14.734Z,0.70
2022-08-29T10:55:51.162Z,1.00
2022-08-29T10:58:40.217Z,0.90
2022-08-29T11:01:15.661Z,0.63
2022-08-29T11:03:49.961Z,0.80
2022-08-29T11:06:23.929Z,0.60
2022-08-29T11:08:58.416Z,0.60
2022-08-29T11:11:30.981Z,1.03
2022-08-29T11:14:06.073Z,0.70
2022-08-29T11:16:40.217Z,0.40
2022-08-29T11:19:20.141Z,0.80
2022-08-29T11:21:56.735Z,0.40
2022-08-29T11:24:32.955Z,0.60
2022-08-29T11:27:14.106Z,1.07
2022-08-29T11:29:48.957Z,0.70
2022-08-29T11:32:25.357Z,0.70
2022-08-29T11:35:07.131Z,0.80
2022-08-29T11:38:23.924Z,0.53
2022-08-29T11:41:28.272Z,0.70
2022-08-29T11:44:10.517Z,0.60
2022-08-29T11:46:41.991Z,0.70
2022-08-29T11:49:36.595Z,0.80
2022-08-29T11:52:27.289Z,0.60
2022-08-29T11:55:16.590Z,0.50
2022-08-29T11:58:05.690Z,0.50
2022-08-29T12:00:46.725Z,0.80
2022-08-29T12:03:54.333Z,0.80
2022-08-29T12:06:32.675Z,0.70
2022-08-29T12:09:13.322Z,0.43
2022-08-29T12:12:21.223Z,0.53
2022-08-29T12:14:53.174Z,0.50
2022-08-29T12:18:03.998Z,1.03
2022-08-29T12:20:42.971Z,0.77
2022-08-29T12:23:22.126Z,0.50
2022-08-29T12:28:49.082Z,0.60
2022-08-29T12:31:44.385Z,0.70
2022-08-29T12:34:38.495Z,0.40
2022-08-29T12:37:31.515Z,0.73
2022-08-29T12:40:32.473Z,0.53
2022-08-29T12:43:18.423Z,0.70
2022-08-29T12:45:49.403Z,0.73
2022-08-29T12:48:21.877Z,0.60
2022-08-29T12:50:54.041Z,0.53
2022-08-29T12:53:24.485Z,0.60
2022-08-29T12:55:56.158Z,0.67
2022-08-29T12:58:40.622Z,0.70
2022-08-29T13:01:21.182Z,0.50
2022-08-29T13:03:57.483Z,0.70
2022-08-29T13:06:27.843Z,0.87
2022-08-29T13:08:56.092Z,0.47
2022-08-29T13:11:26.480Z,0.43
2022-08-29T13:14:06.886Z,0.90
2022-08-29T13:16:35.465Z,0.70
2022-08-29T13:19:11.866Z,0.60
2022-08-29T13:21:41.787Z,0.67
2022-08-29T13:24:13.681Z,0.70
2022-08-29T13:26:55.957Z,0.53
2022-08-29T13:29:37.546Z,0.87
2022-08-29T13:32:23.313Z,0.70
2022-08-29T13:35:03.008Z,0.70
2022-08-29T13:37:34.878Z,0.70
2022-08-29T13:40:32.563Z,1.00
2022-08-29T13:43:02.177Z,0.60
2022-08-29T13:45:30.568Z,0.70
2022-08-29T13:48:14.059Z,0.57
2022-08-29T13:50:42.762Z,0.50
2022-08-29T13:53:12.562Z,0.53
2022-08-29T13:55:43.589Z,0.60
2022-08-29T13:58:15.070Z,0.50
2022-08-29T14:00:44.393Z,0.53
2022-08-29T14:03:16.946Z,0.90
2022-08-29T14:05:46.007Z,0.53
2022-08-29T14:08:15.720Z,0.50
2022-08-29T14:10:44.937Z,0.67
2022-08-29T14:13:13.390Z,0.50
2022-08-29T14:15:41.861Z,0.40
2022-08-29T14:18:10.417Z,0.93
2022-08-29T14:20:39.465Z,0.90
2022-08-29T14:23:07.646Z,0.70
2022-08-29T14:25:37.286Z,0.50
2022-08-29T14:28:06.098Z,0.50
2022-08-29T14:30:34.333Z,0.57
2022-08-29T14:33:02.718Z,0.60
2022-08-29T14:35:32.071Z,0.43
2022-08-29T14:38:01.932Z,0.50
2022-08-29T14:40:32.475Z,0.40
2022-08-29T14:43:03.630Z,0.50
2022-08-29T14:45:33.094Z,0.50
2022-08-29T14:48:01.916Z,0.47
2022-08-29T14:50:30.281Z,0.77
2022-08-29T14:52:58.456Z,0.40
2022-08-29T14:55:27.324Z,0.40
2022-08-29T14:57:55.969Z,0.60
2022-08-29T15:00:30.505Z,0.40
2022-08-29T15:03:00.001Z,0.50
2022-08-29T15:05:28.776Z,0.70
2022-08-29T15:07:57.393Z,0.50
2022-08-29T15:10:26.729Z,0.37
2022-08-29T15:12:55.495Z,0.50
2022-08-29T15:15:29.768Z,0.40
2022-08-29T15:17:58.606Z,0.50
2022-08-29T15:20:37.646Z,0.40
2022-08-29T15:23:07.445Z,0.40
2022-08-29T15:25:35.940Z,0.40
2022-08-29T15:28:05.691Z,0.37
2022-08-29T15:30:36.045Z,0.80
2022-08-29T15:33:04.293Z,0.73
2022-08-29T15:35:32.705Z,0.40
2022-08-29T15:38:01.158Z,0.70
2022-08-29T15:40:29.462Z,0.50
2022-08-29T15:42:57.762Z,0.40
2022-08-29T15:45:26.434Z,0.60
2022-08-29T15:47:59.192Z,0.67
2022-08-29T15:50:28.521Z,0.77
2022-08-29T15:52:56.979Z,0.60
2022-08-29T15:55:25.203Z,0.40
2022-08-29T15:57:53.918Z,0.43
2022-08-29T16:00:30.046Z,0.50
2022-08-29T16:03:03.052Z,0.40
2022-08-29T16:05:31.740Z,0.80
2022-08-29T16:08:00.129Z,0.40
2022-08-29T16:10:28.961Z,0.40
2022-08-29T16:12:57.351Z,0.90
2022-08-29T16:15:27.799Z,0.50
2022-08-29T16:17:56.410Z,0.40
2022-08-29T16:20:26.715Z,0.40
2022-08-29T16:22:55.225Z,0.43
2022-08-29T16:25:25.166Z,0.33
2022-08-29T16:27:53.477Z,0.63
2022-08-29T16:30:22.461Z,0.30
2022-08-29T16:32:52.522Z,0.30
2022-08-29T16:35:21.315Z,0.50
2022-08-29T16:38:00.392Z,0.23
2022-08-29T16:40:31.560Z,0.53
2022-08-29T16:42:59.827Z,0.40
2022-08-29T16:45:28.238Z,0.47
2022-08-29T16:47:57.676Z,0.30
2022-08-29T16:50:27.085Z,0.57
2022-08-29T16:52:57.349Z,0.47
2022-08-29T16:55:26.264Z,0.30
2022-08-29T16:58:11.983Z,0.37
2022-08-29T17:00:41.335Z,0.50
2022-08-29T17:03:09.938Z,0.60
2022-08-29T17:05:38.509Z,0.80
2022-08-29T17:08:06.930Z,0.63
2022-08-29T17:10:34.014Z,0.40
2022-08-29T17:13:01.681Z,0.30
2022-08-29T17:15:28.752Z,0.40
2022-08-29T17:17:56.950Z,0.50
2022-08-29T17:20:25.613Z,0.40
2022-08-29T17:22:54.445Z,0.50
2022-08-29T17:25:24.840Z,0.30
2022-08-29T17:28:16.613Z,0.40
2022-08-29T17:30:43.662Z,0.77
2022-08-29T17:33:12.322Z,0.30
2022-08-29T17:35:40.531Z,0.50
2022-08-29T17:38:09.118Z,0.47
2022-08-29T17:40:40.017Z,0.67
2022-08-29T17:43:10.637Z,0.50
2022-08-29T17:45:40.734Z,0.40
2022-08-29T17:48:09.191Z,0.50
2022-08-29T17:50:37.692Z,0.40
2022-08-29T17:53:06.612Z,0.70
2022-08-29T17:55:34.809Z,0.57
2022-08-29T17:58:04.570Z,0.63
2022-08-29T18:00:34.133Z,0.40
2022-08-29T18:03:02.528Z,0.40
2022-08-29T18:05:30.842Z,0.40
2022-08-29T18:07:59.313Z,0.30
2022-08-29T18:10:27.865Z,0.40
2022-08-29T18:12:55.996Z,0.50
2022-08-29T18:15:26.662Z,0.40
2022-08-29T18:17:55.789Z,0.30
2022-08-29T18:20:23.965Z,0.70
2022-08-29T18:22:52.618Z,0.50
2022-08-29T18:25:23.873Z,0.47
2022-08-29T18:27:52.098Z,0.47
2022-08-29T18:30:21.250Z,0.40
2022-08-29T18:32:50.874Z,0.50
2022-08-29T18:35:19.957Z,0.50
2022-08-29T18:37:48.709Z,0.40
2022-08-29T18:40:17.038Z,0.50
2022-08-29T18:42:45.273Z,0.43
2022-08-29T18:45:14.280Z,0.40
2022-08-29T18:47:42.855Z,0.47
2022-08-29T18:50:30.513Z,0.37
2022-08-29T18:52:58.868Z,0.30
2022-08-29T18:55:27.361Z,0.40
2022-08-29T18:57:56.721Z,0.30
2022-08-29T19:00:26.111Z,0.40
2022-08-29T19:02:54.881Z,0.50
2022-08-29T19:05:26.423Z,0.30
2022-08-29T19:07:55.129Z,0.30
2022-08-29T19:10:25.957Z,0.30
2022-08-29T19:12:55.590Z,0.40
2022-08-29T19:15:26.366Z,0.40
2022-08-29T19:17:55.259Z,0.30
2022-08-29T19:20:45.038Z,0.40
2022-08-29T19:23:13.714Z,0.60
2022-08-29T19:25:42.705Z,0.40
2022-08-29T19:28:12.674Z,0.50
2022-08-29T19:30:41.985Z,0.57
2022-08-29T19:33:12.293Z,0.50
2022-08-29T19:35:42.435Z,0.40
2022-08-29T19:38:10.798Z,0.53
2022-08-29T19:40:40.166Z,0.40
2022-08-29T19:43:13.851Z,0.40
2022-08-29T19:45:44.223Z,0.40
2022-08-29T19:48:15.125Z,0.50
2022-08-29T19:50:47.743Z,0.53
2022-08-29T19:53:26.636Z,0.50
2022-08-29T19:55:56.345Z,0.40
2022-08-29T19:58:32.073Z,1.10
2022-08-29T20:01:02.000Z,0.63
2022-08-29T20:03:30.552Z,0.50
2022-08-29T20:06:05.717Z,0.40
2022-08-29T20:08:36.202Z,0.60
2022-08-29T20:11:06.561Z,0.40
2022-08-29T20:13:36.461Z,0.37
2022-08-29T20:16:10.300Z,0.40
2022-08-29T20:18:41.016Z,0.50
2022-08-29T20:21:10.786Z,0.40
2022-08-29T20:23:41.404Z,0.53
2022-08-29T20:26:18.578Z,0.40
2022-08-29T20:28:47.628Z,0.63
2022-08-29T20:31:15.996Z,0.60
2022-08-29T20:33:45.223Z,0.40
2022-08-29T20:36:32.577Z,0.60
2022-08-29T20:39:01.192Z,0.50
2022-08-29T20:41:29.753Z,0.60
2022-08-29T20:44:06.837Z,0.40
2022-08-29T20:46:39.521Z,0.50
2022-08-29T20:49:08.482Z,0.43
2022-08-29T20:51:39.092Z,0.40
2022-08-29T20:54:07.739Z,0.50
2022-08-29T20:56:36.418Z,0.50
2022-08-29T20:59:05.317Z,0.63
2022-08-29T21:01:34.667Z,0.50
2022-08-29T21:04:21.472Z,0.50
2022-08-29T21:06:55.286Z,0.67
2022-08-29T21:09:24.012Z,0.70
2022-08-29T21:11:52.823Z,0.60
2022-08-29T21:14:23.501Z,0.40
2022-08-29T21:16:52.644Z,0.40
2022-08-29T21:19:21.480Z,0.60
2022-08-29T21:21:51.547Z,0.60
2022-08-29T21:24:20.461Z,0.70
2022-08-29T21:26:49.298Z,0.70
2022-08-29T21:29:19.600Z,0.57
2022-08-29T21:31:48.246Z,0.50
2022-08-29T21:34:17.098Z,0.60
2022-08-29T21:36:46.416Z,0.70
2022-08-29T21:39:28.202Z,0.50
2022-08-29T21:41:59.925Z,0.60
2022-08-29T21:44:31.872Z,0.60
2022-08-29T21:47:00.356Z,0.50
2022-08-29T21:49:30.392Z,0.77
2022-08-29T21:51:58.978Z,0.50
2022-08-29T21:54:29.080Z,0.50
2022-08-29T21:56:57.307Z,0.40
2022-08-29T21:59:28.040Z,0.50
2022-08-29T22:01:57.398Z,0.40
2022-08-29T22:04:28.184Z,0.50
2022-08-29T22:06:57.568Z,0.40
2022-08-29T22:09:26.063Z,0.57
2022-08-29T22:11:56.361Z,0.40
2022-08-29T22:14:45.252Z,0.40
2022-08-29T22:17:13.694Z,0.40
2022-08-29T22:19:42.171Z,0.83
2022-08-29T22:22:11.172Z,0.60
2022-08-29T22:24:39.770Z,0.50
2022-08-29T22:27:09.531Z,0.43
2022-08-29T22:29:38.637Z,0.83
2022-08-29T22:32:07.104Z,0.60
2022-08-29T22:34:35.577Z,0.50
2022-08-29T22:37:03.916Z,0.47
2022-08-29T22:39:32.688Z,0.60
2022-08-29T22:42:01.175Z,0.50
2022-08-29T22:44:59.905Z,0.50
2022-08-29T22:47:20.347Z,0.43
2022-08-29T22:49:48.631Z,0.60
2022-08-29T22:52:16.904Z,0.60
2022-08-29T22:54:45.586Z,0.60
2022-08-29T22:57:16.039Z,0.50
2022-08-29T22:59:46.856Z,0.40
2022-08-29T23:02:15.188Z,0.50
2022-08-29T23:04:43.851Z,0.40
2022-08-29T23:07:13.130Z,0.40
2022-08-29T23:09:42.726Z,0.40
2022-08-29T23:12:12.218Z,0.63
2022-08-29T23:14:42.629Z,0.60
2022-08-29T23:17:12.548Z,0.40
2022-08-29T23:19:41.436Z,0.40
2022-08-29T23:22:11.233Z,0.50
2022-08-29T23:24:41.550Z,0.70
2022-08-29T23:27:22.549Z,0.40
2022-08-29T23:29:51.640Z,0.50
2022-08-29T23:32:21.574Z,0.50
2022-08-29T23:34:50.174Z,0.60
2022-08-29T23:37:18.349Z,0.53
2022-08-29T23:39:46.826Z,0.63
2022-08-29T23:42:15.580Z,0.50
2022-08-29T23:44:43.808Z,0.53
2022-08-29T23:47:12.369Z,0.60
2022-08-29T23:49:42.334Z,0.70
2022-08-29T23:52:10.582Z,0.80
2022-08-29T23:54:39.266Z,0.67
2022-08-29T23:57:08.009Z,0.50
2022-08-29T23:59:53.729Z,0.60
